Time;durP1;ratioP1;P1;durP2;ratioP2;P2;SDS_P1;SDS_P2;PMS_P1;PMS_P2;Temp;Humidity;BMP_temperature;BMP_pressure;BME280_temperature;BME280_humidity;BME280_pressure;Samples;Min_cycle;Max_cycle;Signal;HPM_P1;HPM_P2
2023/08/11 00:01:03;;;;;;;0.50;0.50;;;;;;;18.66;100.00;99682.84;5053075;28;20201;-67
2023/08/11 00:03:30;;;;;;;0.43;0.43;;;;;;;18.71;100.00;99684.25;5052018;28;20201;-67
2023/08/11 00:05:57;;;;;;;0.30;0.30;;;;;;;18.67;100.00;99682.78;5052681;28;20258;-67
2023/08/11 00:08:24;;;;;;;0.53;0.53;;;;;;;18.64;100.00;99676.91;5053492;28;20201;-67
2023/08/11 00:10:52;;;;;;;0.50;0.50;;;;;;;18.63;100.00;99676.06;5053516;28;20228;-67
2023/08/11 00:13:18;;;;;;;0.50;0.50;;;;;;;18.61;100.00;99672.72;5052203;28;20241;-67
2023/08/11 00:15:45;;;;;;;0.50;0.50;;;;;;;18.52;100.00;99656.84;5053377;28;20682;-67
2023/08/11 00:18:13;;;;;;;0.60;0.60;;;;;;;18.61;100.00;99671.91;5052582;28;20607;-67
2023/08/11 00:20:40;;;;;;;0.40;0.40;;;;;;;18.63;100.00;99664.84;5053179;28;20207;-67
2023/08/11 00:23:07;;;;;;;0.63;0.63;;;;;;;18.63;100.00;99668.28;5052564;28;20253;-67
2023/08/11 00:25:34;;;;;;;0.57;0.57;;;;;;;18.62;100.00;99663.16;5053067;28;20201;-67
2023/08/11 00:28:00;;;;;;;0.70;0.70;;;;;;;18.60;100.00;99660.69;5052435;28;20193;-67
2023/08/11 00:30:27;;;;;;;0.60;0.60;;;;;;;18.61;100.00;99657.13;5049505;28;20250;-67
2023/08/11 00:32:54;;;;;;;0.57;0.57;;;;;;;18.62;100.00;99671.81;5052928;28;20209;-67
2023/08/11 00:35:23;;;;;;;0.60;0.60;;;;;;;18.56;100.00;99660.94;5052839;28;20296;-67
2023/08/11 00:37:50;;;;;;;0.53;0.53;;;;;;;18.56;100.00;99669.56;5053018;28;20558;-67
2023/08/11 00:40:18;;;;;;;0.50;0.50;;;;;;;18.48;100.00;99669.13;5052109;28;20673;-67
2023/08/11 00:42:44;;;;;;;0.40;0.40;;;;;;;18.48;100.00;99669.13;5052711;28;20194;-67
2023/08/11 00:45:11;;;;;;;0.60;0.60;;;;;;;18.50;100.00;99664.75;5052419;28;20288;-67
2023/08/11 00:47:42;;;;;;;0.50;0.50;;;;;;;18.49;100.00;99652.63;5053034;28;20197;-67
2023/08/11 00:50:10;;;;;;;0.50;0.50;;;;;;;18.59;100.00;99659.00;5053185;28;20225;-67
2023/08/11 00:52:39;;;;;;;0.50;0.50;;;;;;;18.62;100.00;99669.19;5046292;28;20225;-67
2023/08/11 00:55:08;;;;;;;0.60;0.60;;;;;;;18.67;100.00;99672.38;5052646;28;20296;-67
2023/08/11 00:57:35;;;;;;;0.40;0.40;;;;;;;18.65;100.00;99657.78;5052499;28;20224;-67
2023/08/11 01:00:11;;;;;;;0.40;0.40;;;;;;;18.53;100.00;99648.97;5052281;28;20613;-67
2023/08/11 01:02:38;;;;;;;0.50;0.50;;;;;;;18.57;100.00;99673.84;5052550;28;20198;-67
2023/08/11 01:05:07;;;;;;;0.60;0.60;;;;;;;18.55;100.00;99670.47;5052075;28;20201;-67
2023/08/11 01:07:42;;;;;;;0.50;0.50;;;;;;;18.57;100.00;99681.63;5051315;28;20199;-67
2023/08/11 01:10:17;;;;;;;0.57;0.57;;;;;;;18.27;100.00;99626.25;5051947;28;20204;-67
2023/08/11 01:12:54;;;;;;;0.60;0.60;;;;;;;18.51;100.00;99661.22;5052258;28;20226;-67
2023/08/11 01:15:25;;;;;;;0.60;0.60;;;;;;;18.48;100.00;99666.53;5051336;28;20228;-67
2023/08/11 01:17:53;;;;;;;0.47;0.47;;;;;;;18.44;100.00;99670.25;5052110;28;20228;-67
2023/08/11 01:20:21;;;;;;;0.43;0.43;;;;;;;18.35;100.00;99660.41;5051759;28;20244;-67
2023/08/11 01:22:56;;;;;;;0.60;0.60;;;;;;;18.41;100.00;99675.63;5051877;28;20214;-67
2023/08/11 01:25:25;;;;;;;0.53;0.53;;;;;;;18.34;100.00;99659.56;5051548;28;20600;-67
2023/08/11 01:27:55;;;;;;;0.40;0.40;;;;;;;18.35;100.00;99676.78;5052190;28;20194;-67
2023/08/11 01:30:23;;;;;;;0.50;0.50;;;;;;;18.27;100.00;99678.16;5051198;28;20213;-67
2023/08/11 01:32:51;;;;;;;0.50;0.50;;;;;;;18.27;100.00;99680.75;5051791;28;20689;-67
2023/08/11 01:35:18;;;;;;;0.43;0.43;;;;;;;18.24;100.00;99678.34;5051680;28;20197;-67
2023/08/11 01:37:45;;;;;;;0.80;0.80;;;;;;;18.28;100.00;99685.03;5051646;28;20205;-67
2023/08/11 01:40:14;;;;;;;0.50;0.50;;;;;;;18.26;100.00;99681.69;5051782;28;20577;-67
2023/08/11 01:42:44;;;;;;;0.60;0.60;;;;;;;18.20;100.00;99675.09;5051601;28;20200;-67
2023/08/11 01:45:13;;;;;;;0.63;0.63;;;;;;;18.18;100.00;99676.94;5051405;28;20613;-67
2023/08/11 01:47:42;;;;;;;0.50;0.50;;;;;;;18.16;100.00;99678.78;5051327;28;20665;-67
2023/08/11 01:50:11;;;;;;;3.87;0.97;;;;;;;18.12;100.00;99679.06;5051012;28;20204;-67
2023/08/11 01:52:40;;;;;;;0.50;0.50;;;;;;;18.09;100.00;99685.25;5051044;28;20217;-67
2023/08/11 01:55:09;;;;;;;0.40;0.40;;;;;;;18.10;100.00;99681.72;5051087;28;20211;-67
2023/08/11 01:57:37;;;;;;;0.50;0.50;;;;;;;18.17;100.00;99682.22;5049026;28;20202;-67
2023/08/11 02:00:07;;;;;;;0.50;0.50;;;;;;;18.18;99.89;99683.88;5051196;28;20196;-67
2023/08/11 02:02:34;;;;;;;0.40;0.40;;;;;;;18.21;99.54;99683.72;5051109;28;20200;-67
2023/08/11 02:05:01;;;;;;;0.50;0.50;;;;;;;18.21;98.85;99686.31;5051441;28;20210;-67
2023/08/11 02:07:27;;;;;;;0.50;0.50;;;;;;;18.15;99.20;99684.06;5050861;28;20200;-67
2023/08/11 02:09:56;;;;;;;0.60;0.60;;;;;;;18.19;98.85;99682.97;5050817;28;20276;-67
2023/08/11 02:12:23;;;;;;;0.67;0.67;;;;;;;18.12;98.89;99671.25;5050907;28;20707;-67
2023/08/11 02:14:49;;;;;;;0.50;0.50;;;;;;;18.08;98.66;99667.16;5050764;28;20698;-67
2023/08/11 02:17:20;;;;;;;0.70;0.70;;;;;;;18.04;98.94;99671.69;5050900;28;20201;-67
2023/08/11 02:19:47;;;;;;;0.50;0.50;;;;;;;18.14;98.65;99677.19;5051137;28;20706;-67
2023/08/11 02:22:14;;;;;;;0.57;0.57;;;;;;;18.14;98.48;99672.00;5050692;28;20647;-67
2023/08/11 02:24:41;;;;;;;0.50;0.50;;;;;;;18.10;98.61;99675.69;5051332;28;20225;-68
2023/08/11 02:27:09;;;;;;;0.50;0.50;;;;;;;17.95;99.40;99668.78;5049172;28;20677;-67
2023/08/11 02:29:35;;;;;;;0.60;0.60;;;;;;;17.86;100.00;99679.66;5050930;28;20200;-67
2023/08/11 02:32:03;;;;;;;0.63;0.63;;;;;;;17.77;100.00;99679.22;5050459;28;20228;-67
2023/08/11 02:34:31;;;;;;;0.47;0.47;;;;;;;17.76;100.00;99685.38;5051108;28;20227;-67
2023/08/11 02:36:58;;;;;;;0.50;0.50;;;;;;;17.74;100.00;99676.81;5050624;28;20200;-67
2023/08/11 02:39:25;;;;;;;0.60;0.60;;;;;;;17.72;100.00;99670.03;5050592;28;20198;-67
2023/08/11 02:41:52;;;;;;;0.50;0.50;;;;;;;17.79;100.00;99680.00;5050635;28;20211;-67
2023/08/11 02:44:19;;;;;;;0.50;0.50;;;;;;;17.84;100.00;99680.56;5050445;28;20577;-67
2023/08/11 02:46:46;;;;;;;0.60;0.60;;;;;;;17.92;100.00;99687.94;5050764;28;20205;-68
2023/08/11 02:49:13;;;;;;;0.50;0.50;;;;;;;17.90;99.99;99670.81;5050685;28;20690;-67
2023/08/11 02:51:41;;;;;;;0.50;0.50;;;;;;;18.06;99.37;99690.59;5050761;28;20201;-67
2023/08/11 02:54:08;;;;;;;0.40;0.40;;;;;;;18.12;98.71;99692.03;5050106;28;20235;-67
2023/08/11 02:56:36;;;;;;;0.60;0.60;;;;;;;18.15;98.59;99694.44;5050950;28;20202;-67
2023/08/11 02:59:04;;;;;;;0.50;0.50;;;;;;;18.22;98.28;99696.59;5050646;28;20201;-67
2023/08/11 03:01:32;;;;;;;0.40;0.40;;;;;;;18.24;97.69;99699.94;5050268;28;20196;-67
2023/08/11 03:03:59;;;;;;;0.70;0.70;;;;;;;18.28;97.19;99703.22;5050880;28;20616;-67
2023/08/11 03:06:26;;;;;;;0.47;0.47;;;;;;;18.31;97.19;99703.88;5049377;28;20197;-67
2023/08/11 03:08:55;;;;;;;0.50;0.50;;;;;;;18.29;97.00;99697.06;5050372;28;20196;-67
2023/08/11 03:11:22;;;;;;;0.70;0.70;;;;;;;18.26;97.07;99705.03;5050634;28;20680;-67
2023/08/11 03:13:49;;;;;;;0.50;0.50;;;;;;;18.20;97.13;99707.97;5050451;28;20221;-67
2023/08/11 03:16:16;;;;;;;0.43;0.43;;;;;;;18.17;97.52;99723.72;5050339;28;20209;-67
2023/08/11 03:18:43;;;;;;;0.40;0.40;;;;;;;18.13;97.58;99707.50;5050657;28;20198;-68
2023/08/11 03:21:09;;;;;;;0.53;0.53;;;;;;;18.14;97.73;99719.56;5050398;28;20626;-68
2023/08/11 03:23:36;;;;;;;0.50;0.50;;;;;;;18.12;97.66;99721.41;5049930;28;20570;-68
2023/08/11 03:26:04;;;;;;;0.50;0.50;;;;;;;18.09;97.89;99720.75;5050213;28;20198;-68
2023/08/11 03:28:31;;;;;;;0.60;0.60;;;;;;;18.04;97.96;99725.31;5049962;28;20229;-68
2023/08/11 03:30:58;;;;;;;0.60;0.60;;;;;;;18.02;98.40;99734.97;5050462;28;20207;-67
2023/08/11 03:33:25;;;;;;;0.40;0.40;;;;;;;18.05;98.72;99732.19;5050063;28;20278;-67
2023/08/11 03:35:52;;;;;;;0.50;0.50;;;;;;;18.07;98.77;99741.56;5050289;28;20206;-67
2023/08/11 03:38:19;;;;;;;0.43;0.43;;;;;;;18.10;98.79;99730.16;5049858;28;20203;-67
2023/08/11 03:40:45;;;;;;;0.50;0.50;;;;;;;18.10;98.48;99720.63;5049919;28;20201;-67
2023/08/11 03:43:14;;;;;;;0.60;0.60;;;;;;;18.24;98.45;99730.25;5049964;28;20189;-67
2023/08/11 03:45:41;;;;;;;0.70;0.70;;;;;;;18.28;98.07;99732.59;5050115;28;20197;-67
2023/08/11 03:48:07;;;;;;;0.53;0.53;;;;;;;18.33;97.92;99729.72;5049655;28;20229;-67
2023/08/11 03:50:34;;;;;;;0.47;0.43;;;;;;;18.36;97.40;99734.75;5049685;28;20213;-67
2023/08/11 03:53:01;;;;;;;0.60;0.60;;;;;;;18.42;97.27;99729.19;5049077;28;20711;-67
2023/08/11 03:55:28;;;;;;;0.47;0.47;;;;;;;18.46;96.77;99730.69;5050674;28;20214;-67
2023/08/11 03:57:55;;;;;;;0.50;0.50;;;;;;;18.42;96.07;99718.81;5053344;28;20201;-67
2023/08/11 04:00:23;;;;;;;0.50;0.50;;;;;;;18.49;96.49;99724.50;5048905;28;20475;-67
2023/08/11 04:02:50;;;;;;;0.50;0.50;;;;;;;18.52;96.22;99730.38;5049910;28;20299;-67
2023/08/11 04:05:17;;;;;;;0.90;0.90;;;;;;;18.52;96.23;99730.38;5049504;28;20204;-67
2023/08/11 04:07:44;;;;;;;0.50;0.50;;;;;;;18.44;96.34;99705.75;5049852;28;20203;-67
2023/08/11 04:10:11;;;;;;;0.40;0.40;;;;;;;18.50;96.80;99734.00;5049690;28;20197;-67
2023/08/11 04:12:38;;;;;;;0.70;0.70;;;;;;;18.41;97.32;99732.75;5049494;28;20258;-67
2023/08/11 04:15:06;;;;;;;0.50;0.50;;;;;;;18.30;98.78;99738.53;5051261;28;20246;-67
2023/08/11 04:17:36;;;;;;;0.60;0.60;;;;;;;18.29;99.45;99738.59;5053311;28;20200;-67
2023/08/11 04:20:12;;;;;;;0.50;0.50;;;;;;;18.29;99.87;99743.78;5053309;28;20225;-67
2023/08/11 04:22:39;;;;;;;0.40;0.40;;;;;;;18.24;100.00;99745.81;5053204;28;20222;-67
2023/08/11 04:25:08;;;;;;;0.33;0.33;;;;;;;18.21;100.00;99751.19;5052866;28;20236;-67
2023/08/11 04:27:34;;;;;;;0.73;0.73;;;;;;;18.18;100.00;99748.75;5050119;28;20198;-67
2023/08/11 04:30:02;;;;;;;0.40;0.40;;;;;;;18.20;100.00;99749.50;5052845;28;20267;-67
2023/08/11 04:32:29;;;;;;;0.53;0.53;;;;;;;18.26;100.00;99747.41;5052525;28;20703;-67
2023/08/11 04:34:57;;;;;;;0.70;0.70;;;;;;;18.38;100.00;99738.91;5049198;28;20207;-67
2023/08/11 04:37:23;;;;;;;0.40;0.40;;;;;;;18.52;100.00;99745.13;5052736;28;20207;-67
2023/08/11 04:39:50;;;;;;;0.50;0.50;;;;;;;18.65;99.10;99752.13;5052780;28;20332;-67
2023/08/11 04:42:17;;;;;;;0.60;0.60;;;;;;;18.80;98.01;99758.22;5052487;28;20271;-67
2023/08/11 04:44:44;;;;;;;0.53;0.53;;;;;;;18.96;98.05;99759.00;5051550;28;20681;-68
2023/08/11 04:47:11;;;;;;;0.50;0.50;;;;;;;19.02;97.03;99750.00;5051677;28;20214;-68
2023/08/11 04:49:37;;;;;;;0.80;0.80;;;;;;;19.26;95.53;99761.50;5051946;28;20209;-68
2023/08/11 04:52:06;;;;;;;0.60;0.60;;;;;;;19.40;94.90;99753.75;5051677;28;20239;-68
2023/08/11 04:54:32;;;;;;;0.60;0.60;;;;;;;19.54;93.55;99756.38;5047149;28;20227;-68
2023/08/11 04:56:59;;;;;;;0.50;0.50;;;;;;;19.68;93.88;99758.09;5051104;28;20217;-68
2023/08/11 04:59:26;;;;;;;0.50;0.50;;;;;;;19.86;91.70;99754.38;5049667;28;20208;-68
2023/08/11 05:01:55;;;;;;;0.70;0.70;;;;;;;20.03;90.59;99761.97;5049459;28;20239;-68
2023/08/11 05:04:22;;;;;;;0.43;0.43;;;;;;;20.20;90.02;99759.09;5047093;28;20684;-68
2023/08/11 05:06:48;;;;;;;0.60;0.60;;;;;;;20.36;87.84;99764.19;5050376;28;20255;-68
2023/08/11 05:09:17;;;;;;;0.50;0.50;;;;;;;20.52;88.33;99759.66;5048417;28;20821;-67
2023/08/11 05:11:44;;;;;;;0.90;0.90;;;;;;;20.76;86.72;99758.06;5050574;28;20200;-68
2023/08/11 05:14:13;;;;;;;0.67;0.67;;;;;;;20.92;85.05;99763.94;5047566;28;20217;-69
2023/08/11 05:16:40;;;;;;;0.50;0.50;;;;;;;21.04;84.64;99766.63;5049642;28;20213;-68
2023/08/11 05:19:07;;;;;;;0.70;0.70;;;;;;;21.19;83.01;99763.88;5048537;28;20207;-67
2023/08/11 05:21:34;;;;;;;0.63;0.63;;;;;;;21.29;81.96;99766.69;5049969;28;20201;-68
2023/08/11 05:24:02;;;;;;;0.70;0.70;;;;;;;21.47;83.63;99765.44;5050189;28;20549;-68
2023/08/11 05:26:30;;;;;;;0.70;0.70;;;;;;;21.67;82.52;99762.28;5048033;28;20216;-68
2023/08/11 05:28:57;;;;;;;0.80;0.80;;;;;;;21.83;81.13;99767.25;5050572;28;20208;-68
2023/08/11 05:31:24;;;;;;;0.60;0.60;;;;;;;21.89;80.54;99757.25;5048875;28;20692;-68
2023/08/11 05:33:52;;;;;;;0.70;0.70;;;;;;;22.02;79.22;99772.88;5049349;28;20332;-68
2023/08/11 05:36:19;;;;;;;0.70;0.70;;;;;;;22.13;80.02;99777.31;5048391;28;20616;-68
2023/08/11 05:38:45;;;;;;;0.60;0.60;;;;;;;22.28;79.21;99781.44;5048984;28;20208;-68
2023/08/11 05:41:12;;;;;;;0.80;0.80;;;;;;;22.39;76.65;99784.13;5049330;28;20215;-68
2023/08/11 05:43:40;;;;;;;2.00;0.73;;;;;;;22.52;76.73;99786.66;5050258;28;20600;-68
2023/08/11 05:46:07;;;;;;;1.20;1.20;;;;;;;22.65;76.01;99788.25;5050505;28;20212;-68
2023/08/11 05:48:35;;;;;;;0.63;0.63;;;;;;;22.90;75.51;99788.16;5050664;28;20211;-68
2023/08/11 05:51:02;;;;;;;0.60;0.60;;;;;;;23.13;78.39;99782.97;5050275;28;20201;-67
2023/08/11 05:53:29;;;;;;;0.60;0.60;;;;;;;23.32;72.30;99789.31;5048373;28;20221;-69
2023/08/11 05:55:56;;;;;;;0.57;0.57;;;;;;;23.54;71.55;99783.28;5049942;28;20200;-69
2023/08/11 05:58:23;;;;;;;0.40;0.40;;;;;;;23.45;74.06;99790.06;5050057;28;20209;-69
2023/08/11 06:00:51;;;;;;;0.80;0.80;;;;;;;23.54;71.90;99791.13;5050096;28;20208;-69
2023/08/11 06:03:18;;;;;;;0.70;0.70;;;;;;;23.72;72.65;99789.69;5047615;28;20243;-69
2023/08/11 06:05:44;;;;;;;1.10;0.53;;;;;;;23.85;74.29;99790.41;5049655;28;20197;-69
2023/08/11 06:08:11;;;;;;;0.73;0.50;;;;;;;24.05;70.79;99794.06;5049993;28;20208;-69
2023/08/11 06:10:38;;;;;;;0.77;0.77;;;;;;;24.07;69.63;99791.34;5048561;28;20201;-70
2023/08/11 06:13:05;;;;;;;1.00;1.00;;;;;;;23.84;68.99;99769.59;5050203;28;20676;-69
2023/08/11 06:15:31;;;;;;;0.73;0.73;;;;;;;24.05;71.09;99786.22;5049403;28;20208;-69
2023/08/11 06:17:59;;;;;;;0.97;0.60;;;;;;;24.24;73.76;99780.34;5049226;28;20205;-69
2023/08/11 06:20:27;;;;;;;0.70;0.70;;;;;;;24.46;69.56;99785.53;5047857;28;21015;-69
2023/08/11 06:22:54;;;;;;;0.70;0.70;;;;;;;24.40;69.52;99788.66;5049428;28;20240;-69
2023/08/11 06:25:20;;;;;;;0.60;0.60;;;;;;;24.46;70.97;99782.91;5047440;28;20208;-69
2023/08/11 06:27:47;;;;;;;0.67;0.67;;;;;;;24.49;67.62;99782.69;5049135;28;20542;-68
2023/08/11 06:30:14;;;;;;;0.77;0.77;;;;;;;24.37;67.97;99774.00;5049996;28;20204;-70
2023/08/11 06:32:42;;;;;;;0.57;0.57;;;;;;;24.55;69.49;99787.41;5050103;28;20262;-70
2023/08/11 06:35:11;;;;;;;0.50;0.50;;;;;;;24.67;67.76;99786.41;5049083;28;20282;-70
2023/08/11 06:37:38;;;;;;;1.00;0.73;;;;;;;24.55;67.57;99787.41;5048931;28;20318;-70
2023/08/11 06:40:06;;;;;;;0.77;0.77;;;;;;;24.73;69.77;99785.91;5048909;28;20204;-70
2023/08/11 06:42:33;;;;;;;0.73;0.73;;;;;;;24.93;68.45;99785.13;5045027;28;20287;-70
2023/08/11 06:44:59;;;;;;;0.53;0.53;;;;;;;25.04;68.17;99795.53;5047994;28;20274;-70
2023/08/11 06:47:26;;;;;;;0.47;0.47;;;;;;;25.12;63.34;99799.31;5047496;28;20209;-70
2023/08/11 06:49:53;;;;;;;0.53;0.53;;;;;;;25.06;64.54;99804.13;5049473;28;20208;-70
2023/08/11 06:52:21;;;;;;;0.50;0.50;;;;;;;25.04;64.87;99795.53;5049172;28;20208;-70
2023/08/11 06:54:48;;;;;;;0.60;0.60;;;;;;;25.38;63.77;99798.78;5049362;28;20232;-69
2023/08/11 06:57:15;;;;;;;0.47;0.47;;;;;;;25.57;61.67;99808.59;5049055;28;20207;-68
2023/08/11 06:59:42;;;;;;;0.50;0.50;;;;;;;25.63;60.14;99802.81;5050194;28;20209;-68
2023/08/11 07:02:08;;;;;;;0.60;0.60;;;;;;;25.65;59.73;99808.78;5046462;28;20204;-68
2023/08/11 07:04:35;;;;;;;0.90;0.90;;;;;;;25.79;64.19;99811.03;5048556;28;20196;-68
2023/08/11 07:07:02;;;;;;;0.40;0.40;;;;;;;25.88;61.51;99809.41;5046666;28;20561;-68
2023/08/11 07:09:30;;;;;;;0.70;0.70;;;;;;;25.97;58.74;99805.97;5049492;28;20200;-68
2023/08/11 07:11:57;;;;;;;0.40;0.40;;;;;;;25.97;58.12;99801.56;5046159;28;20688;-68
2023/08/11 07:14:25;;;;;;;0.50;0.50;;;;;;;26.10;57.07;99807.41;5047759;28;20216;-68
2023/08/11 07:16:52;;;;;;;0.57;0.57;;;;;;;26.10;58.02;99807.41;5047888;28;20213;-68
2023/08/11 07:19:20;;;;;;;0.47;0.47;;;;;;;26.34;60.69;99808.84;5047078;28;20207;-68
2023/08/11 07:21:47;;;;;;;0.60;0.60;;;;;;;26.63;59.98;99815.78;5046991;28;20228;-68
2023/08/11 07:24:13;;;;;;;0.50;0.50;;;;;;;26.95;58.02;99812.91;5048870;28;20197;-67
2023/08/11 07:26:42;;;;;;;0.50;0.50;;;;;;;27.26;58.36;99810.09;5048221;28;20209;-68
2023/08/11 07:29:08;;;;;;;0.37;0.37;;;;;;;27.31;52.14;99818.38;5048025;28;20732;-68
2023/08/11 07:31:35;;;;;;;0.60;0.60;;;;;;;27.48;52.26;99815.03;5048150;28;20211;-69
2023/08/11 07:34:02;;;;;;;0.70;0.70;;;;;;;27.65;55.25;99814.31;5049019;28;20278;-69
2023/08/11 07:36:29;;;;;;;0.57;0.57;;;;;;;27.82;51.30;99821.41;5048420;28;20197;-69
2023/08/11 07:38:56;;;;;;;0.57;0.57;;;;;;;28.06;49.23;99827.03;5050186;28;20593;-69
2023/08/11 07:41:23;;;;;;;0.63;0.50;;;;;;;27.91;51.06;99817.94;5049536;28;20201;-70
2023/08/11 07:43:52;;;;;;;0.97;0.53;;;;;;;27.89;52.63;99826.94;5049906;28;20203;-69
2023/08/11 07:46:18;;;;;;;0.60;0.60;;;;;;;28.11;50.90;99824.78;5049752;28;20200;-68
2023/08/11 07:48:45;;;;;;;0.37;0.37;;;;;;;28.17;48.91;99820.75;5049828;28;20204;-68
2023/08/11 07:51:14;;;;;;;0.50;0.50;;;;;;;28.35;50.38;99823.38;5053748;28;20212;-70
2023/08/11 07:53:40;;;;;;;0.53;0.30;;;;;;;28.46;48.27;99821.38;5053244;28;20205;-70
2023/08/11 07:56:07;;;;;;;0.40;0.40;;;;;;;28.36;48.16;99803.97;5053486;28;20677;-69
2023/08/11 07:58:34;;;;;;;0.70;0.70;;;;;;;28.54;53.95;99817.97;5053235;28;20201;-69
2023/08/11 08:01:02;;;;;;;0.50;0.50;;;;;;;28.64;48.03;99824.84;5053054;28;20235;-69
2023/08/11 08:03:29;;;;;;;0.50;0.50;;;;;;;28.59;48.57;99819.19;5053346;28;20232;-68
2023/08/11 08:05:56;;;;;;;0.90;0.90;;;;;;;28.85;49.59;99815.81;5052338;28;20208;-70
2023/08/11 08:08:22;;;;;;;0.57;0.57;;;;;;;29.12;50.00;99813.88;5052410;28;20240;-69
2023/08/11 08:10:49;;;;;;;0.40;0.40;;;;;;;29.25;46.93;99815.31;5052321;28;20688;-69
2023/08/11 08:13:16;;;;;;;0.75;0.47;;;;;;;29.24;50.13;99816.28;5053325;28;20200;-69
2023/08/11 08:15:43;;;;;;;0.55;0.55;;;;;;;29.32;50.39;99819.81;5050750;28;20248;-69
2023/08/11 08:18:11;;;;;;;0.60;0.60;;;;;;;29.47;47.19;99817.41;5051249;28;20677;-67
2023/08/11 08:20:38;;;;;;;1.65;0.40;;;;;;;29.74;44.13;99814.59;5052546;28;20201;-67
2023/08/11 08:23:05;;;;;;;0.47;0.47;;;;;;;29.87;49.37;99815.03;5054303;28;20221;-68
2023/08/11 08:25:31;;;;;;;0.60;0.60;;;;;;;29.88;45.94;99808.75;5052354;28;20288;-68
2023/08/11 08:27:58;;;;;;;0.40;0.40;;;;;;;30.10;44.28;99805.53;5051934;28;20213;-67
2023/08/11 08:30:25;;;;;;;0.60;0.60;;;;;;;30.18;45.69;99810.00;5054014;28;20622;-67
2023/08/11 08:32:52;;;;;;;0.40;0.40;;;;;;;30.02;45.56;99797.56;5047224;28;20205;-67
2023/08/11 08:35:21;;;;;;;0.35;0.35;;;;;;;29.94;44.77;99810.75;5049104;28;20731;-67
2023/08/11 08:37:48;;;;;;;0.60;0.60;;;;;;;30.04;41.12;99806.16;5051897;28;20196;-67
2023/08/11 08:40:15;;;;;;;0.38;0.38;;;;;;;30.24;42.20;99805.91;5050634;28;20204;-67
2023/08/11 08:42:43;;;;;;;0.43;0.43;;;;;;;30.11;39.00;99809.81;5052531;28;20204;-67
2023/08/11 08:45:10;;;;;;;0.40;0.40;;;;;;;30.25;39.63;99807.53;5052150;28;20211;-67
2023/08/11 08:47:38;;;;;;;0.45;0.45;;;;;;;30.30;45.20;99805.25;5052971;28;20669;-67
2023/08/11 08:50:07;;;;;;;0.40;0.40;;;;;;;30.23;39.83;99806.88;5052341;28;20224;-68
2023/08/11 08:52:35;;;;;;;0.50;0.50;;;;;;;30.34;40.87;99811.88;5051552;28;20635;-67
2023/08/11 08:55:03;;;;;;;0.45;0.45;;;;;;;30.21;39.55;99802.56;5052242;28;20213;-67
2023/08/11 08:57:30;;;;;;;0.40;0.40;;;;;;;30.16;41.10;99794.28;5052560;28;20206;-67
2023/08/11 08:59:57;;;;;;;0.43;0.43;;;;;;;30.33;40.82;99797.81;5052969;28;20227;-67
2023/08/11 09:02:27;;;;;;;0.32;0.32;;;;;;;30.39;40.67;99797.16;5052500;28;20211;-67
2023/08/11 09:04:54;;;;;;;0.60;0.60;;;;;;;30.34;39.02;99780.13;5051267;28;20209;-68
2023/08/11 09:07:22;;;;;;;0.47;0.47;;;;;;;30.15;40.70;99803.22;5054579;28;20219;-67
2023/08/11 09:09:50;;;;;;;0.35;0.35;;;;;;;30.16;39.90;99799.59;5052167;28;20200;-72
2023/08/11 09:12:17;;;;;;;0.40;0.40;;;;;;;30.41;44.20;99800.47;5051951;28;20557;-71
2023/08/11 09:14:44;;;;;;;0.25;0.25;;;;;;;30.57;41.29;99792.56;5050888;28;20291;-71
2023/08/11 09:17:11;;;;;;;0.98;0.60;;;;;;;30.80;41.01;99792.75;5052527;28;20192;-71
2023/08/11 09:19:38;;;;;;;0.40;0.40;;;;;;;30.82;37.88;99795.22;5051314;28;20224;-70
2023/08/11 09:22:10;;;;;;;0.30;0.30;;;;;;;30.94;37.78;99794.72;5049722;28;20223;-70
2023/08/11 09:24:38;;;;;;;0.40;0.40;;;;;;;30.86;41.46;99786.78;5049492;28;20239;-71
2023/08/11 09:27:06;;;;;;;0.50;0.50;;;;;;;30.64;38.10;99787.44;5047887;28;20227;-70
2023/08/11 09:29:36;;;;;;;1.08;0.45;;;;;;;30.61;38.23;99787.78;5050926;28;20224;-70
2023/08/11 09:32:05;;;;;;;1.33;0.65;;;;;;;30.33;37.69;99763.41;5050527;28;20661;-70
2023/08/11 09:34:32;;;;;;;6.85;0.68;;;;;;;30.63;38.40;99780.50;5048613;28;20303;-70
2023/08/11 09:36:59;;;;;;;0.50;0.50;;;;;;;30.75;37.53;99789.78;5047953;28;20203;-70
2023/08/11 09:39:28;;;;;;;0.55;0.55;;;;;;;30.98;40.49;99780.19;5050905;28;20262;-70
2023/08/11 09:41:56;;;;;;;0.35;0.35;;;;;;;31.06;37.58;99761.63;5050420;28;20219;-70
2023/08/11 09:44:24;;;;;;;0.40;0.40;;;;;;;30.77;36.54;99779.84;5049510;28;20224;-70
2023/08/11 09:46:51;;;;;;;0.40;0.40;;;;;;;30.88;37.25;99778.69;5048638;28;20197;-72
2023/08/11 09:49:18;;;;;;;0.30;0.30;;;;;;;30.86;37.46;99775.38;5042759;28;20236;-63
2023/08/11 09:51:46;;;;;;;0.30;0.30;;;;;;;30.99;38.32;99768.59;5049239;28;20258;-63
2023/08/11 09:54:15;;;;;;;0.30;0.30;;;;;;;31.10;36.97;99768.25;5046126;28;20205;-63
2023/08/11 09:56:43;;;;;;;0.40;0.40;;;;;;;31.19;38.03;99777.84;5051242;28;20204;-63
2023/08/11 09:59:12;;;;;;;0.80;0.40;;;;;;;31.32;38.00;99772.00;5047173;28;20212;-68
2023/08/11 10:01:43;;;;;;;0.30;0.30;;;;;;;31.44;39.60;99753.94;5047645;28;20216;-67
2023/08/11 10:04:13;;;;;;;0.32;0.32;;;;;;;31.58;38.58;99779.75;5047456;28;20240;-67
2023/08/11 10:06:47;;;;;;;0.50;0.50;;;;;;;31.54;37.56;99770.47;5047315;28;20611;-67
2023/08/11 10:09:15;;;;;;;0.47;0.47;;;;;;;31.52;35.85;99775.97;5051490;28;20216;-67
2023/08/11 10:11:45;;;;;;;0.30;0.30;;;;;;;31.54;36.18;99773.13;5046929;28;20212;-67
2023/08/11 10:14:17;;;;;;;0.32;0.32;;;;;;;31.60;39.31;99770.63;5047898;28;20204;-67
2023/08/11 10:16:45;;;;;;;0.30;0.30;;;;;;;31.59;35.77;99763.69;5047210;28;20205;-68
2023/08/11 10:19:12;;;;;;;0.50;0.50;;;;;;;31.30;35.35;99757.28;5048675;28;20212;-67
2023/08/11 10:21:40;;;;;;;0.40;0.40;;;;;;;31.40;36.50;99763.22;5051307;28;20216;-67
2023/08/11 10:24:07;;;;;;;0.50;0.50;;;;;;;31.43;35.05;99757.56;5049002;28;20628;-67
2023/08/11 10:26:35;;;;;;;0.50;0.50;;;;;;;31.53;36.21;99752.94;5048632;28;20200;-67
2023/08/11 10:29:02;;;;;;;0.30;0.30;;;;;;;31.52;36.62;99759.22;5049771;28;20246;-68
2023/08/11 10:31:32;;;;;;;0.30;0.30;;;;;;;31.51;37.02;99750.44;5050877;28;20693;-68
2023/08/11 10:34:06;;;;;;;0.20;0.20;;;;;;;31.67;38.08;99755.69;5051030;28;20258;-67
2023/08/11 10:36:33;;;;;;;0.40;0.35;;;;;;;31.52;36.51;99756.56;5049822;28;20217;-68
2023/08/11 10:39:01;;;;;;;0.25;0.25;;;;;;;31.47;36.50;99749.09;5048675;28;20695;-67
2023/08/11 10:41:29;;;;;;;0.30;0.30;;;;;;;31.20;37.20;99747.72;5044868;28;20643;-65
2023/08/11 10:43:57;;;;;;;0.47;0.47;;;;;;;31.10;37.50;99755.00;5047903;28;20201;-64
2023/08/11 10:46:26;;;;;;;0.40;0.40;;;;;;;31.07;36.96;99749.22;5046809;28;20266;-67
2023/08/11 10:48:54;;;;;;;0.40;0.40;;;;;;;31.08;35.78;99749.03;5047589;28;20669;-66
2023/08/11 10:51:30;;;;;;;0.47;0.47;;;;;;;31.03;38.06;99746.09;5045848;28;20603;-67
2023/08/11 10:54:01;;;;;;;0.30;0.30;;;;;;;30.76;37.19;99738.47;5047628;28;20239;-67
2023/08/11 10:56:29;;;;;;;0.73;0.38;;;;;;;30.66;37.91;99737.84;5046080;28;20278;-66
2023/08/11 10:59:08;;;;;;;0.38;0.38;;;;;;;30.87;42.59;99740.78;5049796;28;20200;-66
2023/08/11 11:01:36;;;;;;;0.30;0.30;;;;;;;30.71;36.87;99738.16;5049171;28;20239;-66
2023/08/11 11:04:03;;;;;;;0.30;0.30;;;;;;;30.81;37.53;99730.88;5048613;28;20208;-66
2023/08/11 11:06:32;;;;;;;0.47;0.47;;;;;;;30.96;40.70;99734.50;5049210;28;20200;-66
2023/08/11 11:08:59;;;;;;;0.40;0.40;;;;;;;31.09;38.19;99734.81;5047120;28;20204;-67
2023/08/11 11:11:25;;;;;;;0.45;0.45;;;;;;;31.24;40.49;99732.31;5049011;28;20311;-67
2023/08/11 11:13:53;;;;;;;0.40;0.40;;;;;;;31.32;35.32;99729.63;5041166;28;20215;-66
2023/08/11 11:16:20;;;;;;;0.40;0.40;;;;;;;31.43;41.27;99731.06;5049029;28;20224;-67
2023/08/11 11:18:48;;;;;;;0.55;0.55;;;;;;;31.47;37.21;99727.09;5049796;28;20201;-67
2023/08/11 11:21:15;;;;;;;0.30;0.30;;;;;;;31.52;38.19;99730.06;5050418;28;20235;-67
2023/08/11 11:23:46;;;;;;;0.40;0.40;;;;;;;31.66;36.91;99726.72;5050231;28;20232;-67
2023/08/11 11:26:16;;;;;;;0.30;0.30;;;;;;;31.29;35.70;99723.81;5054112;28;20288;-67
2023/08/11 11:28:42;;;;;;;0.30;0.25;;;;;;;31.26;37.00;99732.13;5051328;28;20294;-66
2023/08/11 11:31:09;;;;;;;0.30;0.30;;;;;;;31.46;36.14;99730.72;5053195;28;20201;-67
2023/08/11 11:33:36;;;;;;;0.50;0.50;;;;;;;31.54;36.25;99736.84;5052968;28;20201;-66